sensor_id;sensor_type;location;lat;lon;timestamp;P1;durP1;ratioP1;P2;durP2;ratioP2
75589;SDS011;64169;47.240;11.312;2023-09-07T00:01:44;6.82;;;3.05;;
75589;SDS011;64169;47.240;11.312;2023-09-07T00:04:10;7.45;;;3.10;;
75589;SDS011;64169;47.240;11.312;2023-09-07T00:06:38;8.88;;;3.08;;
75589;SDS011;64169;47.240;11.312;2023-09-07T00:09:04;6.88;;;3.00;;
75589;SDS011;64169;47.240;11.312;2023-09-07T00:11:31;6.63;;;3.00;;
75589;SDS011;64169;47.240;11.312;2023-09-07T00:13:56;6.53;;;2.90;;
75589;SDS011;64169;47.240;11.312;2023-09-07T00:16:24;6.25;;;2.90;;
75589;SDS011;64169;47.240;11.312;2023-09-07T00:18:49;8.25;;;3.13;;
75589;SDS011;64169;47.240;11.312;2023-09-07T00:21:15;7.32;;;2.88;;
75589;SDS011;64169;47.240;11.312;2023-09-07T00:23:40;6.40;;;2.80;;
75589;SDS011;64169;47.240;11.312;2023-09-07T00:26:06;8.02;;;2.58;;
75589;SDS011;64169;47.240;11.312;2023-09-07T00:28:31;6.10;;;2.50;;
75589;SDS011;64169;47.240;11.312;2023-09-07T00:30:57;8.05;;;2.85;;
75589;SDS011;64169;47.240;11.312;2023-09-07T00:33:22;7.20;;;2.20;;
75589;SDS011;64169;47.240;11.312;2023-09-07T00:35:47;5.57;;;2.33;;
75589;SDS011;64169;47.240;11.312;2023-09-07T00:38:13;7.57;;;2.45;;
75589;SDS011;64169;47.240;11.312;2023-09-07T00:40:41;6.97;;;2.97;;
75589;SDS011;64169;47.240;11.312;2023-09-07T00:43:08;6.65;;;2.63;;
75589;SDS011;64169;47.240;11.312;2023-09-07T00:45:33;6.20;;;2.65;;
75589;SDS011;64169;47.240;11.312;2023-09-07T00:47:59;6.97;;;2.97;;
75589;SDS011;64169;47.240;11.312;2023-09-07T00:50:24;7.68;;;2.55;;
75589;SDS011;64169;47.240;11.312;2023-09-07T00:52:49;6.10;;;2.63;;
75589;SDS011;64169;47.240;11.312;2023-09-07T00:55:15;6.90;;;2.83;;
75589;SDS011;64169;47.240;11.312;2023-09-07T00:57:41;7.50;;;2.30;;
75589;SDS011;64169;47.240;11.312;2023-09-07T01:00:07;7.13;;;2.92;;
75589;SDS011;64169;47.240;11.312;2023-09-07T01:02:34;7.13;;;2.50;;
75589;SDS011;64169;47.240;11.312;2023-09-07T01:05:00;7.45;;;2.60;;
75589;SDS011;64169;47.240;11.312;2023-09-07T01:07:36;6.47;;;2.83;;
75589;SDS011;64169;47.240;11.312;2023-09-07T01:10:03;5.57;;;2.65;;
75589;SDS011;64169;47.240;11.312;2023-09-07T01:12:29;7.43;;;2.90;;
75589;SDS011;64169;47.240;11.312;2023-09-07T01:14:55;7.55;;;2.63;;
75589;SDS011;64169;47.240;11.312;2023-09-07T01:17:21;5.75;;;2.55;;
75589;SDS011;64169;47.240;11.312;2023-09-07T01:19:48;6.13;;;2.45;;
75589;SDS011;64169;47.240;11.312;2023-09-07T01:22:19;6.57;;;2.90;;
75589;SDS011;64169;47.240;11.312;2023-09-07T01:24:47;6.18;;;2.60;;
75589;SDS011;64169;47.240;11.312;2023-09-07T01:27:14;5.97;;;2.10;;
75589;SDS011;64169;47.240;11.312;2023-09-07T01:29:39;6.57;;;2.72;;
75589;SDS011;64169;47.240;11.312;2023-09-07T01:32:05;5.15;;;2.38;;
75589;SDS011;64169;47.240;11.312;2023-09-07T01:34:31;6.65;;;2.90;;
75589;SDS011;64169;47.240;11.312;2023-09-07T01:36:57;6.40;;;2.50;;
75589;SDS011;64169;47.240;11.312;2023-09-07T01:39:22;6.93;;;2.58;;
75589;SDS011;64169;47.240;11.312;2023-09-07T01:41:48;6.78;;;2.90;;
75589;SDS011;64169;47.240;11.312;2023-09-07T01:44:13;6.68;;;3.03;;
75589;SDS011;64169;47.240;11.312;2023-09-07T01:46:39;5.75;;;2.55;;
75589;SDS011;64169;47.240;11.312;2023-09-07T01:49:04;7.20;;;2.70;;
75589;SDS011;64169;47.240;11.312;2023-09-07T01:51:29;13.98;;;2.70;;
75589;SDS011;64169;47.240;11.312;2023-09-07T01:53:55;5.72;;;2.22;;
75589;SDS011;64169;47.240;11.312;2023-09-07T01:56:20;6.72;;;2.70;;
75589;SDS011;64169;47.240;11.312;2023-09-07T01:58:46;6.03;;;2.60;;
75589;SDS011;64169;47.240;11.312;2023-09-07T02:03:51;6.55;;;2.72;;
75589;SDS011;64169;47.240;11.312;2023-09-07T02:06:17;6.95;;;2.70;;
75589;SDS011;64169;47.240;11.312;2023-09-07T02:08:43;5.90;;;2.42;;
75589;SDS011;64169;47.240;11.312;2023-09-07T02:11:08;7.32;;;2.65;;
75589;SDS011;64169;47.240;11.312;2023-09-07T02:13:34;6.28;;;2.47;;
75589;SDS011;64169;47.240;11.312;2023-09-07T02:16:03;7.57;;;2.72;;
75589;SDS011;64169;47.240;11.312;2023-09-07T02:18:32;6.85;;;3.17;;
75589;SDS011;64169;47.240;11.312;2023-09-07T02:21:04;6.35;;;2.45;;
75589;SDS011;64169;47.240;11.312;2023-09-07T02:23:31;6.07;;;2.53;;
75589;SDS011;64169;47.240;11.312;2023-09-07T02:25:57;6.78;;;3.08;;
75589;SDS011;64169;47.240;11.312;2023-09-07T02:28:24;7.03;;;2.40;;
75589;SDS011;64169;47.240;11.312;2023-09-07T02:30:49;7.32;;;2.42;;
75589;SDS011;64169;47.240;11.312;2023-09-07T02:33:15;5.97;;;2.53;;
75589;SDS011;64169;47.240;11.312;2023-09-07T02:35:40;10.23;;;2.83;;
75589;SDS011;64169;47.240;11.312;2023-09-07T02:38:06;6.45;;;2.45;;
75589;SDS011;64169;47.240;11.312;2023-09-07T02:40:31;6.03;;;2.38;;
75589;SDS011;64169;47.240;11.312;2023-09-07T02:42:57;7.20;;;3.00;;
75589;SDS011;64169;47.240;11.312;2023-09-07T02:45:22;5.88;;;2.20;;
75589;SDS011;64169;47.240;11.312;2023-09-07T02:47:48;7.05;;;2.72;;
75589;SDS011;64169;47.240;11.312;2023-09-07T02:50:15;5.95;;;2.33;;
75589;SDS011;64169;47.240;11.312;2023-09-07T02:52:42;6.47;;;2.20;;
75589;SDS011;64169;47.240;11.312;2023-09-07T02:55:07;8.07;;;2.65;;
75589;SDS011;64169;47.240;11.312;2023-09-07T02:57:34;6.03;;;2.35;;
75589;SDS011;64169;47.240;11.312;2023-09-07T03:00:00;6.95;;;2.63;;
75589;SDS011;64169;47.240;11.312;2023-09-07T03:02:25;6.93;;;2.60;;
75589;SDS011;64169;47.240;11.312;2023-09-07T03:04:54;7.00;;;2.53;;
75589;SDS011;64169;47.240;11.312;2023-09-07T03:07:23;6.20;;;2.65;;
75589;SDS011;64169;47.240;11.312;2023-09-07T03:09:48;6.18;;;2.38;;
75589;SDS011;64169;47.240;11.312;2023-09-07T03:12:14;5.65;;;2.42;;
75589;SDS011;64169;47.240;11.312;2023-09-07T03:14:42;5.53;;;2.20;;
75589;SDS011;64169;47.240;11.312;2023-09-07T03:17:08;5.35;;;2.13;;
75589;SDS011;64169;47.240;11.312;2023-09-07T03:19:35;6.93;;;2.47;;
75589;SDS011;64169;47.240;11.312;2023-09-07T03:22:01;6.55;;;2.40;;
75589;SDS011;64169;47.240;11.312;2023-09-07T03:24:26;5.68;;;2.25;;
75589;SDS011;64169;47.240;11.312;2023-09-07T03:26:53;6.05;;;2.70;;
75589;SDS011;64169;47.240;11.312;2023-09-07T03:29:18;5.90;;;2.47;;
75589;SDS011;64169;47.240;11.312;2023-09-07T03:31:43;7.00;;;2.90;;
75589;SDS011;64169;47.240;11.312;2023-09-07T03:34:09;5.88;;;2.38;;
75589;SDS011;64169;47.240;11.312;2023-09-07T03:36:34;5.43;;;1.95;;
75589;SDS011;64169;47.240;11.312;2023-09-07T03:39:01;5.88;;;2.67;;
75589;SDS011;64169;47.240;11.312;2023-09-07T03:41:27;9.15;;;2.50;;
75589;SDS011;64169;47.240;11.312;2023-09-07T03:43:55;5.63;;;2.22;;
75589;SDS011;64169;47.240;11.312;2023-09-07T03:46:21;6.43;;;2.50;;
75589;SDS011;64169;47.240;11.312;2023-09-07T03:48:47;6.15;;;2.67;;
75589;SDS011;64169;47.240;11.312;2023-09-07T03:51:12;6.45;;;2.78;;
75589;SDS011;64169;47.240;11.312;2023-09-07T03:53:38;8.80;;;3.13;;
75589;SDS011;64169;47.240;11.312;2023-09-07T03:56:04;6.57;;;2.75;;
75589;SDS011;64169;47.240;11.312;2023-09-07T03:58:29;7.63;;;3.00;;
75589;SDS011;64169;47.240;11.312;2023-09-07T04:00:54;6.05;;;2.63;;
75589;SDS011;64169;47.240;11.312;2023-09-07T04:03:20;6.38;;;2.75;;
75589;SDS011;64169;47.240;11.312;2023-09-07T04:05:45;6.20;;;2.80;;
75589;SDS011;64169;47.240;11.312;2023-09-07T04:08:11;7.32;;;2.60;;
75589;SDS011;64169;47.240;11.312;2023-09-07T04:10:37;7.70;;;3.22;;
75589;SDS011;64169;47.240;11.312;2023-09-07T04:13:03;6.93;;;2.72;;
75589;SDS011;64169;47.240;11.312;2023-09-07T04:15:29;7.88;;;3.35;;
75589;SDS011;64169;47.240;11.312;2023-09-07T04:17:56;7.05;;;2.78;;
75589;SDS011;64169;47.240;11.312;2023-09-07T04:20:21;6.65;;;3.08;;
75589;SDS011;64169;47.240;11.312;2023-09-07T04:22:47;8.48;;;3.30;;
75589;SDS011;64169;47.240;11.312;2023-09-07T04:25:12;8.05;;;3.08;;
75589;SDS011;64169;47.240;11.312;2023-09-07T04:27:38;7.18;;;3.28;;
75589;SDS011;64169;47.240;11.312;2023-09-07T04:30:03;7.60;;;2.72;;
75589;SDS011;64169;47.240;11.312;2023-09-07T04:32:29;6.80;;;2.92;;
75589;SDS011;64169;47.240;11.312;2023-09-07T04:34:55;8.18;;;2.80;;
75589;SDS011;64169;47.240;11.312;2023-09-07T04:37:21;6.05;;;2.75;;
75589;SDS011;64169;47.240;11.312;2023-09-07T04:39:50;7.93;;;3.22;;
75589;SDS011;64169;47.240;11.312;2023-09-07T04:42:17;6.88;;;2.88;;
75589;SDS011;64169;47.240;11.312;2023-09-07T04:44:43;8.88;;;2.88;;
75589;SDS011;64169;47.240;11.312;2023-09-07T04:47:08;11.48;;;3.83;;
75589;SDS011;64169;47.240;11.312;2023-09-07T04:49:33;8.27;;;2.88;;
75589;SDS011;64169;47.240;11.312;2023-09-07T04:51:59;6.10;;;2.90;;
75589;SDS011;64169;47.240;11.312;2023-09-07T04:54:24;6.28;;;2.97;;
75589;SDS011;64169;47.240;11.312;2023-09-07T04:56:50;7.95;;;3.22;;
75589;SDS011;64169;47.240;11.312;2023-09-07T04:59:15;7.28;;;2.97;;
75589;SDS011;64169;47.240;11.312;2023-09-07T05:01:40;10.43;;;3.03;;
75589;SDS011;64169;47.240;11.312;2023-09-07T05:04:06;6.32;;;2.75;;
75589;SDS011;64169;47.240;11.312;2023-09-07T05:06:32;7.30;;;2.80;;
75589;SDS011;64169;47.240;11.312;2023-09-07T05:09:02;8.18;;;3.00;;
75589;SDS011;64169;47.240;11.312;2023-09-07T05:11:27;6.95;;;2.60;;
75589;SDS011;64169;47.240;11.312;2023-09-07T05:13:53;6.82;;;2.53;;
75589;SDS011;64169;47.240;11.312;2023-09-07T05:16:18;7.63;;;2.95;;
75589;SDS011;64169;47.240;11.312;2023-09-07T05:18:44;6.95;;;3.22;;
75589;SDS011;64169;47.240;11.312;2023-09-07T05:21:13;6.60;;;2.90;;
75589;SDS011;64169;47.240;11.312;2023-09-07T05:23:39;7.13;;;3.00;;
75589;SDS011;64169;47.240;11.312;2023-09-07T05:26:04;6.88;;;2.90;;
75589;SDS011;64169;47.240;11.312;2023-09-07T05:28:30;7.10;;;2.47;;
75589;SDS011;64169;47.240;11.312;2023-09-07T05:30:55;6.70;;;2.80;;
75589;SDS011;64169;47.240;11.312;2023-09-07T05:33:21;8.98;;;4.45;;
75589;SDS011;64169;47.240;11.312;2023-09-07T05:35:46;7.47;;;3.42;;
75589;SDS011;64169;47.240;11.312;2023-09-07T05:38:12;6.47;;;3.05;;
75589;SDS011;64169;47.240;11.312;2023-09-07T05:40:38;7.18;;;2.75;;
75589;SDS011;64169;47.240;11.312;2023-09-07T05:43:05;7.28;;;2.97;;
75589;SDS011;64169;47.240;11.312;2023-09-07T05:45:34;7.07;;;3.28;;
75589;SDS011;64169;47.240;11.312;2023-09-07T05:48:06;7.97;;;3.58;;
75589;SDS011;64169;47.240;11.312;2023-09-07T05:50:35;8.68;;;3.40;;
75589;SDS011;64169;47.240;11.312;2023-09-07T05:53:02;6.95;;;2.72;;
75589;SDS011;64169;47.240;11.312;2023-09-07T05:55:28;6.75;;;2.60;;
75589;SDS011;64169;47.240;11.312;2023-09-07T05:57:54;6.15;;;2.80;;
75589;SDS011;64169;47.240;11.312;2023-09-07T06:00:20;6.95;;;2.60;;
75589;SDS011;64169;47.240;11.312;2023-09-07T06:02:45;7.30;;;2.65;;
75589;SDS011;64169;47.240;11.312;2023-09-07T06:05:12;14.43;;;5.13;;
75589;SDS011;64169;47.240;11.312;2023-09-07T06:07:37;6.32;;;2.70;;
75589;SDS011;64169;47.240;11.312;2023-09-07T06:10:03;6.57;;;3.00;;
75589;SDS011;64169;47.240;11.312;2023-09-07T06:12:30;7.53;;;3.08;;
75589;SDS011;64169;47.240;11.312;2023-09-07T06:14:56;7.18;;;3.03;;
75589;SDS011;64169;47.240;11.312;2023-09-07T06:17:21;7.80;;;2.60;;
75589;SDS011;64169;47.240;11.312;2023-09-07T06:19:47;6.00;;;2.67;;
75589;SDS011;64169;47.240;11.312;2023-09-07T06:22:12;6.47;;;2.78;;
75589;SDS011;64169;47.240;11.312;2023-09-07T06:24:38;6.18;;;2.38;;
75589;SDS011;64169;47.240;11.312;2023-09-07T06:27:03;6.90;;;2.83;;
75589;SDS011;64169;47.240;11.312;2023-09-07T06:29:29;7.20;;;3.33;;
75589;SDS011;64169;47.240;11.312;2023-09-07T06:31:54;6.78;;;2.80;;
75589;SDS011;64169;47.240;11.312;2023-09-07T06:34:20;7.15;;;2.60;;
75589;SDS011;64169;47.240;11.312;2023-09-07T06:36:45;6.40;;;2.53;;
75589;SDS011;64169;47.240;11.312;2023-09-07T06:39:10;6.43;;;2.55;;
75589;SDS011;64169;47.240;11.312;2023-09-07T06:41:36;6.85;;;3.00;;
75589;SDS011;64169;47.240;11.312;2023-09-07T06:44:01;6.43;;;2.75;;
75589;SDS011;64169;47.240;11.312;2023-09-07T06:46:27;7.97;;;3.05;;
75589;SDS011;64169;47.240;11.312;2023-09-07T06:48:52;6.05;;;2.70;;
75589;SDS011;64169;47.240;11.312;2023-09-07T06:51:18;5.88;;;2.75;;
75589;SDS011;64169;47.240;11.312;2023-09-07T06:53:43;7.15;;;3.35;;
75589;SDS011;64169;47.240;11.312;2023-09-07T06:56:08;6.55;;;2.95;;
75589;SDS011;64169;47.240;11.312;2023-09-07T06:58:35;7.15;;;2.95;;
75589;SDS011;64169;47.240;11.312;2023-09-07T07:01:00;7.05;;;3.20;;
75589;SDS011;64169;47.240;11.312;2023-09-07T07:03:27;5.75;;;2.72;;
75589;SDS011;64169;47.240;11.312;2023-09-07T07:05:54;7.47;;;3.00;;
75589;SDS011;64169;47.240;11.312;2023-09-07T07:08:20;8.77;;;3.60;;
75589;SDS011;64169;47.240;11.312;2023-09-07T07:10:45;7.80;;;3.28;;
75589;SDS011;64169;47.240;11.312;2023-09-07T07:13:11;7.28;;;2.88;;
75589;SDS011;64169;47.240;11.312;2023-09-07T07:15:36;7.93;;;3.00;;
75589;SDS011;64169;47.240;11.312;2023-09-07T07:18:02;7.10;;;3.40;;
75589;SDS011;64169;47.240;11.312;2023-09-07T07:20:33;6.60;;;3.00;;
75589;SDS011;64169;47.240;11.312;2023-09-07T07:23:02;7.22;;;3.00;;
75589;SDS011;64169;47.240;11.312;2023-09-07T07:25:28;8.52;;;3.30;;
75589;SDS011;64169;47.240;11.312;2023-09-07T07:27:55;7.00;;;3.03;;
75589;SDS011;64169;47.240;11.312;2023-09-07T07:30:21;6.95;;;3.25;;
75589;SDS011;64169;47.240;11.312;2023-09-07T07:32:47;6.97;;;3.00;;
75589;SDS011;64169;47.240;11.312;2023-09-07T07:35:12;8.68;;;4.22;;
75589;SDS011;64169;47.240;11.312;2023-09-07T07:37:38;8.27;;;3.60;;
75589;SDS011;64169;47.240;11.312;2023-09-07T07:40:04;7.65;;;3.25;;
75589;SDS011;64169;47.240;11.312;2023-09-07T07:42:30;6.55;;;3.05;;
75589;SDS011;64169;47.240;11.312;2023-09-07T07:44:55;8.05;;;3.60;;
75589;SDS011;64169;47.240;11.312;2023-09-07T07:47:20;9.63;;;3.72;;
75589;SDS011;64169;47.240;11.312;2023-09-07T07:49:46;7.53;;;4.03;;
75589;SDS011;64169;47.240;11.312;2023-09-07T07:52:11;7.50;;;3.53;;
75589;SDS011;64169;47.240;11.312;2023-09-07T07:54:37;7.93;;;3.97;;
75589;SDS011;64169;47.240;11.312;2023-09-07T07:57:02;8.23;;;3.38;;
75589;SDS011;64169;47.240;11.312;2023-09-07T07:59:28;6.30;;;3.10;;
75589;SDS011;64169;47.240;11.312;2023-09-07T08:01:53;8.95;;;3.88;;
75589;SDS011;64169;47.240;11.312;2023-09-07T08:04:19;8.20;;;3.50;;
75589;SDS011;64169;47.240;11.312;2023-09-07T08:06:44;8.38;;;3.53;;
75589;SDS011;64169;47.240;11.312;2023-09-07T08:09:10;7.95;;;3.50;;
75589;SDS011;64169;47.240;11.312;2023-09-07T08:11:35;7.22;;;3.35;;
75589;SDS011;64169;47.240;11.312;2023-09-07T08:14:01;7.78;;;3.25;;
75589;SDS011;64169;47.240;11.312;2023-09-07T08:16:27;7.65;;;3.30;;
75589;SDS011;64169;47.240;11.312;2023-09-07T08:18:52;7.97;;;3.28;;
75589;SDS011;64169;47.240;11.312;2023-09-07T08:21:18;7.00;;;3.50;;
75589;SDS011;64169;47.240;11.312;2023-09-07T08:23:43;8.02;;;3.70;;
75589;SDS011;64169;47.240;11.312;2023-09-07T08:26:09;7.43;;;3.67;;
75589;SDS011;64169;47.240;11.312;2023-09-07T08:28:34;7.03;;;3.20;;
75589;SDS011;64169;47.240;11.312;2023-09-07T08:31:00;8.02;;;3.20;;
75589;SDS011;64169;47.240;11.312;2023-09-07T08:33:26;7.38;;;3.70;;
75589;SDS011;64169;47.240;11.312;2023-09-07T08:35:57;8.70;;;3.55;;
75589;SDS011;64169;47.240;11.312;2023-09-07T08:38:25;9.30;;;3.65;;
75589;SDS011;64169;47.240;11.312;2023-09-07T08:40:53;7.50;;;3.78;;
75589;SDS011;64169;47.240;11.312;2023-09-07T08:43:20;6.93;;;3.33;;
75589;SDS011;64169;47.240;11.312;2023-09-07T08:45:46;8.75;;;3.65;;
75589;SDS011;64169;47.240;11.312;2023-09-07T08:48:15;7.65;;;3.50;;
75589;SDS011;64169;47.240;11.312;2023-09-07T08:50:42;8.63;;;3.90;;
75589;SDS011;64169;47.240;11.312;2023-09-07T08:53:14;7.22;;;3.60;;
75589;SDS011;64169;47.240;11.312;2023-09-07T08:55:44;8.23;;;3.70;;
75589;SDS011;64169;47.240;11.312;2023-09-07T08:58:09;7.75;;;3.60;;
75589;SDS011;64169;47.240;11.312;2023-09-07T09:00:35;8.57;;;3.72;;
75589;SDS011;64169;47.240;11.312;2023-09-07T09:03:02;8.95;;;3.72;;
75589;SDS011;64169;47.240;11.312;2023-09-07T09:05:28;7.13;;;3.40;;
75589;SDS011;64169;47.240;11.312;2023-09-07T09:08:05;8.40;;;3.55;;
75589;SDS011;64169;47.240;11.312;2023-09-07T09:10:30;8.13;;;3.45;;
75589;SDS011;64169;47.240;11.312;2023-09-07T09:12:56;7.38;;;3.33;;
75589;SDS011;64169;47.240;11.312;2023-09-07T09:15:24;7.65;;;3.45;;
75589;SDS011;64169;47.240;11.312;2023-09-07T09:17:50;6.80;;;3.30;;
75589;SDS011;64169;47.240;11.312;2023-09-07T09:20:34;7.22;;;3.40;;
75589;SDS011;64169;47.240;11.312;2023-09-07T09:23:03;6.95;;;3.20;;
75589;SDS011;64169;47.240;11.312;2023-09-07T09:25:30;9.18;;;3.65;;
75589;SDS011;64169;47.240;11.312;2023-09-07T09:27:56;7.57;;;3.40;;
75589;SDS011;64169;47.240;11.312;2023-09-07T09:30:22;7.07;;;3.70;;
75589;SDS011;64169;47.240;11.312;2023-09-07T09:32:47;6.63;;;2.80;;
75589;SDS011;64169;47.240;11.312;2023-09-07T09:35:13;7.43;;;3.58;;
75589;SDS011;64169;47.240;11.312;2023-09-07T09:37:48;6.72;;;3.28;;
75589;SDS011;64169;47.240;11.312;2023-09-07T09:40:14;7.18;;;3.75;;
75589;SDS011;64169;47.240;11.312;2023-09-07T09:42:42;7.22;;;3.30;;
75589;SDS011;64169;47.240;11.312;2023-09-07T09:45:09;7.85;;;3.58;;
75589;SDS011;64169;47.240;11.312;2023-09-07T09:47:40;8.13;;;3.53;;
75589;SDS011;64169;47.240;11.312;2023-09-07T09:50:07;7.57;;;3.45;;
75589;SDS011;64169;47.240;11.312;2023-09-07T09:52:35;6.70;;;3.25;;
75589;SDS011;64169;47.240;11.312;2023-09-07T09:55:02;8.32;;;3.50;;
75589;SDS011;64169;47.240;11.312;2023-09-07T09:57:37;7.15;;;3.63;;
75589;SDS011;64169;47.240;11.312;2023-09-07T10:00:04;7.72;;;3.60;;
75589;SDS011;64169;47.240;11.312;2023-09-07T10:02:42;9.13;;;3.50;;
75589;SDS011;64169;47.240;11.312;2023-09-07T10:05:09;7.47;;;3.42;;
75589;SDS011;64169;47.240;11.312;2023-09-07T10:07:44;7.30;;;3.20;;
75589;SDS011;64169;47.240;11.312;2023-09-07T10:10:13;7.32;;;3.42;;
75589;SDS011;64169;47.240;11.312;2023-09-07T10:12:52;6.85;;;3.55;;
75589;SDS011;64169;47.240;11.312;2023-09-07T10:15:27;6.75;;;3.60;;
75589;SDS011;64169;47.240;11.312;2023-09-07T10:20:34;8.02;;;3.63;;
75589;SDS011;64169;47.240;11.312;2023-09-07T10:23:11;9.02;;;3.58;;
75589;SDS011;64169;47.240;11.312;2023-09-07T10:25:37;7.20;;;3.03;;
75589;SDS011;64169;47.240;11.312;2023-09-07T10:28:02;7.13;;;3.58;;
75589;SDS011;64169;47.240;11.312;2023-09-07T10:30:29;6.95;;;3.60;;
75589;SDS011;64169;47.240;11.312;2023-09-07T10:32:54;6.97;;;3.25;;
75589;SDS011;64169;47.240;11.312;2023-09-07T10:35:19;7.05;;;3.95;;
75589;SDS011;64169;47.240;11.312;2023-09-07T10:37:50;6.60;;;3.70;;
75589;SDS011;64169;47.240;11.312;2023-09-07T10:40:20;6.35;;;3.10;;
75589;SDS011;64169;47.240;11.312;2023-09-07T10:42:46;6.60;;;3.25;;
75589;SDS011;64169;47.240;11.312;2023-09-07T10:45:12;6.68;;;3.75;;
75589;SDS011;64169;47.240;11.312;2023-09-07T10:47:44;7.15;;;3.85;;
75589;SDS011;64169;47.240;11.312;2023-09-07T10:50:13;6.05;;;3.33;;
75589;SDS011;64169;47.240;11.312;2023-09-07T10:52:39;7.63;;;4.03;;
75589;SDS011;64169;47.240;11.312;2023-09-07T10:55:06;7.78;;;3.53;;
75589;SDS011;64169;47.240;11.312;2023-09-07T10:57:32;7.90;;;3.20;;
75589;SDS011;64169;47.240;11.312;2023-09-07T11:00:06;6.40;;;3.40;;
75589;SDS011;64169;47.240;11.312;2023-09-07T11:02:36;6.03;;;3.25;;
75589;SDS011;64169;47.240;11.312;2023-09-07T11:05:02;9.25;;;3.78;;
75589;SDS011;64169;47.240;11.312;2023-09-07T11:07:27;8.30;;;3.13;;
75589;SDS011;64169;47.240;11.312;2023-09-07T11:09:53;7.63;;;3.22;;
75589;SDS011;64169;47.240;11.312;2023-09-07T11:12:19;9.18;;;3.65;;
75589;SDS011;64169;47.240;11.312;2023-09-07T11:14:51;7.05;;;3.30;;
75589;SDS011;64169;47.240;11.312;2023-09-07T11:17:17;6.75;;;4.00;;
75589;SDS011;64169;47.240;11.312;2023-09-07T11:19:42;5.88;;;3.00;;
75589;SDS011;64169;47.240;11.312;2023-09-07T11:22:11;5.75;;;3.08;;
75589;SDS011;64169;47.240;11.312;2023-09-07T11:24:37;9.85;;;3.67;;
75589;SDS011;64169;47.240;11.312;2023-09-07T11:27:03;6.65;;;3.83;;
75589;SDS011;64169;47.240;11.312;2023-09-07T11:29:30;6.85;;;3.50;;
75589;SDS011;64169;47.240;11.312;2023-09-07T11:32:06;8.63;;;3.65;;
75589;SDS011;64169;47.240;11.312;2023-09-07T11:34:32;6.82;;;3.65;;
75589;SDS011;64169;47.240;11.312;2023-09-07T11:36:58;6.53;;;3.92;;
75589;SDS011;64169;47.240;11.312;2023-09-07T11:39:23;6.20;;;3.88;;
75589;SDS011;64169;47.240;11.312;2023-09-07T11:41:49;7.82;;;3.53;;
75589;SDS011;64169;47.240;11.312;2023-09-07T11:44:14;6.68;;;3.42;;
75589;SDS011;64169;47.240;11.312;2023-09-07T11:46:39;6.35;;;3.58;;
75589;SDS011;64169;47.240;11.312;2023-09-07T11:49:05;6.90;;;3.95;;
75589;SDS011;64169;47.240;11.312;2023-09-07T11:51:31;6.75;;;3.70;;
75589;SDS011;64169;47.240;11.312;2023-09-07T11:53:57;8.20;;;3.97;;
75589;SDS011;64169;47.240;11.312;2023-09-07T11:56:22;6.65;;;3.67;;
75589;SDS011;64169;47.240;11.312;2023-09-07T11:58:48;6.68;;;3.72;;
75589;SDS011;64169;47.240;11.312;2023-09-07T12:01:14;6.45;;;4.07;;
75589;SDS011;64169;47.240;11.312;2023-09-07T12:03:41;7.32;;;3.72;;
75589;SDS011;64169;47.240;11.312;2023-09-07T12:06:10;6.70;;;3.80;;
75589;SDS011;64169;47.240;11.312;2023-09-07T12:08:36;6.57;;;3.67;;
75589;SDS011;64169;47.240;11.312;2023-09-07T12:11:02;7.00;;;3.80;;
75589;SDS011;64169;47.240;11.312;2023-09-07T12:13:27;7.45;;;3.90;;
75589;SDS011;64169;47.240;11.312;2023-09-07T12:15:53;7.50;;;3.83;;
75589;SDS011;64169;47.240;11.312;2023-09-07T12:18:18;6.45;;;3.72;;
75589;SDS011;64169;47.240;11.312;2023-09-07T12:20:43;7.22;;;3.42;;
75589;SDS011;64169;47.240;11.312;2023-09-07T12:23:10;6.20;;;3.17;;
75589;SDS011;64169;47.240;11.312;2023-09-07T12:25:35;6.22;;;3.35;;
75589;SDS011;64169;47.240;11.312;2023-09-07T12:28:02;7.28;;;3.45;;
75589;SDS011;64169;47.240;11.312;2023-09-07T12:30:28;6.45;;;3.25;;
75589;SDS011;64169;47.240;11.312;2023-09-07T12:32:53;7.07;;;3.40;;
75589;SDS011;64169;47.240;11.312;2023-09-07T12:35:19;6.88;;;3.35;;
75589;SDS011;64169;47.240;11.312;2023-09-07T12:37:45;7.10;;;3.50;;
75589;SDS011;64169;47.240;11.312;2023-09-07T12:40:11;6.95;;;3.78;;
75589;SDS011;64169;47.240;11.312;2023-09-07T12:42:44;7.50;;;3.67;;
75589;SDS011;64169;47.240;11.312;2023-09-07T12:45:11;6.97;;;3.53;;
75589;SDS011;64169;47.240;11.312;2023-09-07T12:47:37;7.07;;;4.05;;
75589;SDS011;64169;47.240;11.312;2023-09-07T12:50:03;6.20;;;3.40;;
75589;SDS011;64169;47.240;11.312;2023-09-07T12:52:30;7.90;;;3.60;;
75589;SDS011;64169;47.240;11.312;2023-09-07T12:54:56;6.60;;;3.72;;
75589;SDS011;64169;47.240;11.312;2023-09-07T12:57:21;6.97;;;3.80;;
75589;SDS011;64169;47.240;11.312;2023-09-07T12:59:47;6.85;;;3.67;;
75589;SDS011;64169;47.240;11.312;2023-09-07T13:02:12;7.75;;;3.70;;
75589;SDS011;64169;47.240;11.312;2023-09-07T13:04:37;8.80;;;3.63;;
75589;SDS011;64169;47.240;11.312;2023-09-07T13:07:03;6.78;;;3.53;;
75589;SDS011;64169;47.240;11.312;2023-09-07T13:09:28;8.10;;;3.50;;
75589;SDS011;64169;47.240;11.312;2023-09-07T13:11:54;6.18;;;3.50;;
75589;SDS011;64169;47.240;11.312;2023-09-07T13:14:19;6.28;;;3.35;;
75589;SDS011;64169;47.240;11.312;2023-09-07T13:16:45;8.23;;;3.90;;
75589;SDS011;64169;47.240;11.312;2023-09-07T13:19:10;8.55;;;3.58;;
75589;SDS011;64169;47.240;11.312;2023-09-07T13:21:36;6.95;;;3.40;;
75589;SDS011;64169;47.240;11.312;2023-09-07T13:24:02;6.72;;;3.70;;
75589;SDS011;64169;47.240;11.312;2023-09-07T13:26:28;5.97;;;3.13;;
75589;SDS011;64169;47.240;11.312;2023-09-07T13:28:53;6.07;;;3.17;;
75589;SDS011;64169;47.240;11.312;2023-09-07T13:31:19;7.43;;;3.17;;
75589;SDS011;64169;47.240;11.312;2023-09-07T13:33:44;6.43;;;3.08;;
75589;SDS011;64169;47.240;11.312;2023-09-07T13:36:10;8.38;;;3.30;;
75589;SDS011;64169;47.240;11.312;2023-09-07T13:38:36;6.50;;;3.00;;
75589;SDS011;64169;47.240;11.312;2023-09-07T13:41:01;6.28;;;2.80;;
75589;SDS011;64169;47.240;11.312;2023-09-07T13:43:27;7.05;;;2.90;;
75589;SDS011;64169;47.240;11.312;2023-09-07T13:45:52;6.30;;;3.28;;
75589;SDS011;64169;47.240;11.312;2023-09-07T13:48:17;5.40;;;2.80;;
75589;SDS011;64169;47.240;11.312;2023-09-07T13:50:43;5.53;;;2.70;;
75589;SDS011;64169;47.240;11.312;2023-09-07T13:53:08;7.93;;;3.42;;
75589;SDS011;64169;47.240;11.312;2023-09-07T13:55:34;6.32;;;2.92;;
75589;SDS011;64169;47.240;11.312;2023-09-07T13:58:00;5.78;;;3.10;;
75589;SDS011;64169;47.240;11.312;2023-09-07T14:00:25;6.70;;;3.38;;
75589;SDS011;64169;47.240;11.312;2023-09-07T14:02:51;6.03;;;2.60;;
75589;SDS011;64169;47.240;11.312;2023-09-07T14:05:17;7.75;;;2.72;;
75589;SDS011;64169;47.240;11.312;2023-09-07T14:07:43;6.10;;;2.60;;
75589;SDS011;64169;47.240;11.312;2023-09-07T14:10:08;6.07;;;2.90;;
75589;SDS011;64169;47.240;11.312;2023-09-07T14:12:34;6.38;;;2.88;;
75589;SDS011;64169;47.240;11.312;2023-09-07T14:14:59;6.28;;;2.95;;
75589;SDS011;64169;47.240;11.312;2023-09-07T14:17:25;8.95;;;3.08;;
75589;SDS011;64169;47.240;11.312;2023-09-07T14:19:50;5.65;;;2.70;;
75589;SDS011;64169;47.240;11.312;2023-09-07T14:22:16;6.28;;;2.67;;
75589;SDS011;64169;47.240;11.312;2023-09-07T14:24:41;6.32;;;2.50;;
75589;SDS011;64169;47.240;11.312;2023-09-07T14:27:07;7.03;;;2.60;;
75589;SDS011;64169;47.240;11.312;2023-09-07T14:29:34;7.25;;;2.70;;
75589;SDS011;64169;47.240;11.312;2023-09-07T14:32:00;5.95;;;2.75;;
75589;SDS011;64169;47.240;11.312;2023-09-07T14:34:25;8.05;;;3.17;;